Time;durP1;ratioP1;P1;durP2;ratioP2;P2;SDS_P1;SDS_P2;PMS_P1;PMS_P2;Temp;Humidity;BMP_temperature;BMP_pressure;BME280_temperature;BME280_humidity;BME280_pressure;Samples;Min_cycle;Max_cycle;Signal;HPM_P1;HPM_P2
2021/07/23 00:01:23;;;;;;;4.18;2.63;;;20.50;62.20;;;;;;5034534;28;20112;-74
2021/07/23 00:03:49;;;;;;;5.47;2.63;;;20.50;62.20;;;;;;5034227;28;20468;-74
2021/07/23 00:06:15;;;;;;;2.88;2.22;;;20.40;62.20;;;;;;5034207;28;20072;-74
2021/07/23 00:08:41;;;;;;;3.13;2.58;;;20.40;62.50;;;;;;5034236;28;20034;-74
2021/07/23 00:11:06;;;;;;;4.13;2.38;;;20.40;62.80;;;;;;5034633;28;20113;-74
2021/07/23 00:13:32;;;;;;;7.05;2.40;;;20.40;63.00;;;;;;5034136;28;20040;-74
2021/07/23 00:15:58;;;;;;;2.47;2.15;;;20.30;62.80;;;;;;5033894;28;20455;-73
2021/07/23 00:18:23;;;;;;;5.57;2.33;;;20.30;63.00;;;;;;5034045;28;20032;-74
2021/07/23 00:20:49;;;;;;;3.67;2.72;;;20.20;63.00;;;;;;5034001;28;20029;-74
2021/07/23 00:23:15;;;;;;;3.08;2.20;;;20.20;63.00;;;;;;5033857;28;20426;-74
2021/07/23 00:25:40;;;;;;;2.97;2.15;;;20.10;63.40;;;;;;5033929;28;20030;-75
2021/07/23 00:28:06;;;;;;;5.47;2.53;;;20.10;62.90;;;;;;5033977;28;20460;-74
2021/07/23 00:30:32;;;;;;;3.70;2.25;;;20.10;62.90;;;;;;5033799;28;20112;-74
2021/07/23 00:32:59;;;;;;;5.03;2.28;;;20.00;62.80;;;;;;5033984;28;20025;-75
2021/07/23 00:35:27;;;;;;;5.43;2.50;;;20.00;62.70;;;;;;5032816;28;20396;-75
2021/07/23 00:37:53;;;;;;;4.70;2.60;;;19.90;62.80;;;;;;5033434;28;20442;-74
2021/07/23 00:40:19;;;;;;;7.00;2.42;;;19.90;62.90;;;;;;5033742;28;20036;-75
2021/07/23 00:42:44;;;;;;;5.15;2.40;;;19.90;63.00;;;;;;5033737;28;20033;-75
2021/07/23 00:45:11;;;;;;;4.68;2.90;;;19.90;63.20;;;;;;5033418;28;20025;-74
2021/07/23 00:47:48;;;;;;;3.03;2.40;;;19.80;63.20;;;;;;5033820;28;20036;-74
2021/07/23 00:50:14;;;;;;;2.97;2.60;;;19.80;63.20;;;;;;5033110;28;20464;-77
2021/07/23 00:52:40;;;;;;;6.20;3.88;;;19.80;63.20;;;;;;5033900;28;20396;-74
2021/07/23 00:55:07;;;;;;;5.05;2.65;;;19.70;63.30;;;;;;5033497;28;20026;-74
2021/07/23 00:57:36;;;;;;;3.35;2.53;;;19.70;63.50;;;;;;5033476;28;20029;-74
2021/07/23 01:00:04;;;;;;;3.10;2.67;;;19.70;63.60;;;;;;5033191;28;20025;-74
2021/07/23 01:02:30;;;;;;;3.38;2.25;;;19.60;63.60;;;;;;5033061;28;20033;-74
2021/07/23 01:04:57;;;;;;;3.50;2.53;;;19.60;63.80;;;;;;5033347;28;20060;-74
2021/07/23 01:07:23;;;;;;;4.18;2.83;;;19.60;63.90;;;;;;5033243;28;20369;-74
2021/07/23 01:09:49;;;;;;;4.03;2.55;;;19.60;64.00;;;;;;5033417;28;20028;-73
2021/07/23 01:12:16;;;;;;;4.80;2.83;;;19.60;64.10;;;;;;5031884;28;20087;-84
2021/07/23 01:14:42;;;;;;;5.13;3.00;;;19.60;64.30;;;;;;5032200;28;20120;-75
2021/07/23 01:17:08;;;;;;;5.05;3.20;;;19.60;64.30;;;;;;5033126;28;20471;-77
2021/07/23 01:19:55;;;;;;;6.60;2.55;;;19.50;64.40;;;;;;5032958;28;20040;-74
2021/07/23 01:22:24;;;;;;;5.15;2.88;;;19.60;64.70;;;;;;5033245;28;20108;-74
2021/07/23 01:24:50;;;;;;;3.80;2.70;;;19.60;64.60;;;;;;5032946;28;20483;-74
2021/07/23 01:27:16;;;;;;;2.83;2.50;;;19.50;64.50;;;;;;5033370;28;20030;-74
2021/07/23 01:29:42;;;;;;;2.63;2.40;;;19.50;64.60;;;;;;5033239;28;20029;-74
2021/07/23 01:32:08;;;;;;;3.65;2.45;;;19.50;64.50;;;;;;5033137;28;20030;-74
2021/07/23 01:34:34;;;;;;;3.75;2.40;;;19.50;64.50;;;;;;5032966;28;20470;-74
2021/07/23 01:36:59;;;;;;;3.95;2.60;;;19.50;64.70;;;;;;5031818;28;20029;-74
2021/07/23 01:39:26;;;;;;;8.05;2.58;;;19.50;64.80;;;;;;5032061;28;20033;-74
2021/07/23 01:41:52;;;;;;;4.80;2.58;;;19.50;64.80;;;;;;5033091;28;20033;-74
2021/07/23 01:44:18;;;;;;;3.70;2.30;;;19.50;64.80;;;;;;5032970;28;20105;-75
2021/07/23 01:46:43;;;;;;;3.20;2.58;;;19.50;65.10;;;;;;5035693;28;20032;-74
2021/07/23 01:49:09;;;;;;;6.55;2.85;;;19.50;65.00;;;;;;5035505;28;20026;-74
2021/07/23 01:51:35;;;;;;;6.30;2.65;;;19.40;64.90;;;;;;5036777;28;20408;-74
2021/07/23 01:54:00;;;;;;;6.35;2.88;;;19.40;65.00;;;;;;5036766;28;20029;-74
2021/07/23 01:56:26;;;;;;;5.53;2.80;;;19.40;65.10;;;;;;5036813;28;20519;-74
2021/07/23 01:58:54;;;;;;;5.03;2.70;;;19.40;65.40;;;;;;5036743;28;20029;-75
2021/07/23 02:01:19;;;;;;;5.45;2.88;;;19.40;65.40;;;;;;5036367;28;20120;-74
2021/07/23 02:03:45;;;;;;;6.15;2.72;;;19.40;65.60;;;;;;5036952;28;20491;-74
2021/07/23 02:06:11;;;;;;;5.40;2.78;;;19.40;65.50;;;;;;5036558;28;20085;-74
2021/07/23 02:08:37;;;;;;;7.38;3.00;;;19.30;65.40;;;;;;5036474;28;20108;-74
2021/07/23 02:11:02;;;;;;;5.63;2.95;;;19.30;65.60;;;;;;5036683;28;20056;-74
2021/07/23 02:13:28;;;;;;;4.03;2.70;;;19.20;65.90;;;;;;5036334;28;20030;-74
2021/07/23 02:15:54;;;;;;;6.97;2.95;;;19.20;66.20;;;;;;5036121;28;20103;-74
2021/07/23 02:18:19;;;;;;;4.47;2.72;;;19.20;66.20;;;;;;5036033;28;20025;-80
2021/07/23 02:20:45;;;;;;;4.38;3.40;;;19.20;66.30;;;;;;5036252;28;20057;-73
2021/07/23 02:23:11;;;;;;;7.35;3.00;;;19.20;66.50;;;;;;5036313;28;20095;-74
2021/07/23 02:25:37;;;;;;;16.33;3.38;;;19.20;66.50;;;;;;5036197;28;20036;-74
2021/07/23 02:28:03;;;;;;;4.38;3.10;;;19.20;66.50;;;;;;5036701;28;20112;-74
2021/07/23 02:30:29;;;;;;;4.30;2.85;;;19.10;66.40;;;;;;5036173;28;20021;-74
2021/07/23 02:32:55;;;;;;;4.60;3.30;;;19.10;66.50;;;;;;5035760;28;20095;-75
2021/07/23 02:35:21;;;;;;;6.72;3.17;;;19.20;66.60;;;;;;5035847;28;20384;-76
2021/07/23 02:37:46;;;;;;;9.65;3.30;;;19.10;66.50;;;;;;5035988;28;20021;-74
2021/07/23 02:40:12;;;;;;;4.30;3.25;;;19.10;66.40;;;;;;5035976;28;20037;-74
2021/07/23 02:42:38;;;;;;;5.32;3.20;;;19.10;66.60;;;;;;5035783;28;20025;-74
2021/07/23 02:45:05;;;;;;;3.80;3.05;;;19.00;66.80;;;;;;5035595;28;20110;-74
2021/07/23 02:47:30;;;;;;;6.25;3.30;;;19.00;66.70;;;;;;5035398;28;20026;-74
2021/07/23 02:49:56;;;;;;;5.25;4.05;;;19.10;66.80;;;;;;5035548;28;20029;-74
2021/07/23 02:52:22;;;;;;;5.07;3.42;;;19.10;66.80;;;;;;5035657;28;20056;-77
2021/07/23 02:54:47;;;;;;;4.28;3.28;;;19.10;66.70;;;;;;5035794;28;20044;-74
2021/07/23 02:57:13;;;;;;;3.83;3.10;;;19.10;66.80;;;;;;5034666;28;20032;-74
2021/07/23 02:59:39;;;;;;;5.35;3.00;;;19.10;66.60;;;;;;5035266;28;20060;-74
2021/07/23 03:02:05;;;;;;;4.85;3.30;;;19.10;66.70;;;;;;5034000;28;20060;-74
2021/07/23 03:04:31;;;;;;;6.60;3.63;;;19.20;66.80;;;;;;5035483;28;20025;-74
2021/07/23 03:06:56;;;;;;;3.47;2.88;;;19.20;66.40;;;;;;5035424;28;20025;-74
2021/07/23 03:09:22;;;;;;;5.30;3.25;;;19.20;66.30;;;;;;5035602;28;20037;-74
2021/07/23 03:11:48;;;;;;;6.35;3.00;;;19.20;66.20;;;;;;5035965;28;20041;-74
2021/07/23 03:14:13;;;;;;;4.28;3.35;;;19.30;66.10;;;;;;5034906;28;20069;-74
2021/07/23 03:16:39;;;;;;;3.97;3.28;;;19.30;66.10;;;;;;5035266;28;20029;-73
2021/07/23 03:19:05;;;;;;;6.03;2.92;;;19.30;65.70;;;;;;5035306;28;20029;-74
2021/07/23 03:21:30;;;;;;;3.67;2.90;;;19.40;65.40;;;;;;5035144;28;20380;-76
2021/07/23 03:23:56;;;;;;;7.60;3.03;;;19.40;65.40;;;;;;5035201;28;20112;-75
2021/07/23 03:26:22;;;;;;;5.70;3.10;;;19.40;64.90;;;;;;5035460;28;20033;-74
2021/07/23 03:28:48;;;;;;;4.13;2.95;;;19.50;64.70;;;;;;5035240;28;20517;-74
2021/07/23 03:31:14;;;;;;;3.67;2.60;;;19.60;64.50;;;;;;5035449;28;20029;-74
2021/07/23 03:33:40;;;;;;;5.25;2.65;;;19.60;64.70;;;;;;5034844;28;20079;-74
2021/07/23 03:36:06;;;;;;;5.90;2.40;;;19.60;63.90;;;;;;5034916;28;20052;-74
2021/07/23 03:38:32;;;;;;;4.60;2.72;;;19.70;63.70;;;;;;5034927;28;20057;-74
2021/07/23 03:40:58;;;;;;;26.67;2.70;;;19.70;63.20;;;;;;5034686;28;20455;-74
2021/07/23 03:43:24;;;;;;;3.15;2.40;;;19.80;63.10;;;;;;5034728;28;20026;-74
2021/07/23 03:45:49;;;;;;;3.63;2.30;;;19.80;62.90;;;;;;5035085;28;20101;-74
2021/07/23 03:48:15;;;;;;;6.03;2.75;;;19.90;62.60;;;;;;5034770;28;20080;-74
2021/07/23 03:50:41;;;;;;;4.57;2.55;;;20.00;62.10;;;;;;5034399;28;20449;-75
2021/07/23 03:53:06;;;;;;;4.07;2.40;;;20.10;61.50;;;;;;5034460;28;20038;-75
2021/07/23 03:55:32;;;;;;;2.20;2.00;;;20.20;61.20;;;;;;5034503;28;20037;-75
2021/07/23 03:57:58;;;;;;;3.50;2.38;;;20.30;61.20;;;;;;5034794;28;20032;-75
2021/07/23 04:00:23;;;;;;;2.85;2.10;;;20.40;60.40;;;;;;5034145;28;20040;-75
2021/07/23 04:02:49;;;;;;;4.32;2.83;;;20.40;59.90;;;;;;5034470;28;20087;-75
2021/07/23 04:05:15;;;;;;;6.30;3.78;;;20.50;59.70;;;;;;5034331;28;20052;-75
2021/07/23 04:07:40;;;;;;;6.50;3.75;;;20.70;59.30;;;;;;5033933;28;20108;-76
2021/07/23 04:10:07;;;;;;;5.47;3.30;;;20.70;59.10;;;;;;5033044;28;20112;-74
2021/07/23 04:12:32;;;;;;;6.82;2.97;;;20.80;58.60;;;;;;5034054;28;20037;-74
2021/07/23 04:14:58;;;;;;;8.82;3.17;;;20.80;58.70;;;;;;5033793;28;20026;-74
2021/07/23 04:17:24;;;;;;;9.50;3.53;;;20.90;58.70;;;;;;5033865;28;20389;-74
2021/07/23 04:19:49;;;;;;;6.97;3.83;;;21.00;58.60;;;;;;5033906;28;20104;-74
2021/07/23 04:22:16;;;;;;;8.77;3.45;;;21.10;58.50;;;;;;5034076;28;20420;-75
2021/07/23 04:24:43;;;;;;;5.82;2.70;;;21.20;58.30;;;;;;5033623;28;20029;-74
2021/07/23 04:27:09;;;;;;;4.35;2.35;;;21.30;58.20;;;;;;5033896;28;20175;-74
2021/07/23 04:29:34;;;;;;;7.93;2.67;;;21.40;58.30;;;;;;5033594;28;20531;-74
2021/07/23 04:32:00;;;;;;;3.58;2.42;;;21.50;58.10;;;;;;5033216;28;20032;-75
2021/07/23 04:34:26;;;;;;;2.03;1.92;;;21.60;57.90;;;;;;5033726;28;20075;-74
2021/07/23 04:36:52;;;;;;;3.22;2.28;;;21.70;57.90;;;;;;5034029;28;20025;-75
2021/07/23 04:39:17;;;;;;;3.33;1.85;;;21.70;58.20;;;;;;5033385;28;20432;-74
2021/07/23 04:41:43;;;;;;;3.67;2.28;;;21.80;58.20;;;;;;5033287;28;20064;-75
2021/07/23 04:44:09;;;;;;;6.15;2.50;;;21.90;58.20;;;;;;5033054;28;20030;-73
2021/07/23 04:46:34;;;;;;;3.97;2.50;;;21.90;58.30;;;;;;5033211;28;20051;-75
2021/07/23 04:49:00;;;;;;;3.33;2.90;;;22.00;58.40;;;;;;5033392;28;20434;-75
2021/07/23 04:51:28;;;;;;;3.17;2.45;;;22.00;58.80;;;;;;5033539;28;20029;-75
2021/07/23 04:53:54;;;;;;;4.55;2.70;;;22.10;59.10;;;;;;5032081;28;20069;-75
2021/07/23 04:56:20;;;;;;;7.18;3.10;;;22.20;59.10;;;;;;5033296;28;20410;-75
2021/07/23 04:58:46;;;;;;;4.45;2.55;;;22.20;59.20;;;;;;5033324;28;20028;-75
2021/07/23 05:01:12;;;;;;;4.38;3.25;;;22.30;59.30;;;;;;5033016;28;20041;-73
2021/07/23 05:03:39;;;;;;;6.03;2.90;;;22.30;59.50;;;;;;5032970;28;20029;-72
2021/07/23 05:06:06;;;;;;;5.75;3.20;;;22.30;59.60;;;;;;5032938;28;20083;-73
2021/07/23 05:08:32;;;;;;;7.25;2.72;;;22.30;59.90;;;;;;5033211;28;20190;-72
2021/07/23 05:11:00;;;;;;;5.82;3.50;;;22.30;60.20;;;;;;5033049;28;20060;-73
2021/07/23 05:13:26;;;;;;;6.85;3.20;;;22.30;60.50;;;;;;5033257;28;20034;-72
2021/07/23 05:15:53;;;;;;;5.85;3.40;;;22.30;60.80;;;;;;5033056;28;20029;-72
2021/07/23 05:18:19;;;;;;;12.82;3.33;;;22.30;60.90;;;;;;5033217;28;20021;-72
2021/07/23 05:20:45;;;;;;;3.72;3.33;;;22.40;61.10;;;;;;5034816;28;20025;-72
2021/07/23 05:23:11;;;;;;;6.03;3.70;;;22.40;61.30;;;;;;5036061;28;20483;-72
2021/07/23 05:25:38;;;;;;;11.02;3.95;;;22.40;61.40;;;;;;5036854;28;20030;-72
2021/07/23 05:28:04;;;;;;;6.10;3.42;;;22.50;61.50;;;;;;5037128;28;20025;-72
2021/07/23 05:30:30;;;;;;;5.28;3.38;;;22.50;61.50;;;;;;5036903;28;20035;-72
2021/07/23 05:32:56;;;;;;;4.90;3.28;;;22.60;61.60;;;;;;5036714;28;20033;-72
2021/07/23 05:35:21;;;;;;;5.75;2.85;;;22.60;61.50;;;;;;5036776;28;20499;-73
2021/07/23 05:37:47;;;;;;;7.00;3.42;;;22.60;61.50;;;;;;5036801;28;20025;-73
2021/07/23 05:40:15;;;;;;;5.00;3.25;;;22.70;61.60;;;;;;5036900;28;20081;-73
2021/07/23 05:42:42;;;;;;;6.47;3.53;;;22.80;61.70;;;;;;5036440;28;20475;-73
2021/07/23 05:45:08;;;;;;;8.35;2.97;;;22.80;61.60;;;;;;5036372;28;20029;-72
2021/07/23 05:47:33;;;;;;;6.30;3.25;;;22.90;61.50;;;;;;5036735;28;20029;-73
2021/07/23 05:49:59;;;;;;;4.72;3.40;;;22.90;61.50;;;;;;5036276;28;20452;-72
2021/07/23 05:52:25;;;;;;;3.65;2.72;;;23.00;61.40;;;;;;5036709;28;20034;-72
2021/07/23 05:54:50;;;;;;;3.92;2.80;;;23.00;61.10;;;;;;5036574;28;20022;-71
2021/07/23 05:57:17;;;;;;;3.58;2.90;;;23.10;61.00;;;;;;5036384;28;20026;-71
2021/07/23 05:59:45;;;;;;;4.90;2.78;;;23.20;60.70;;;;;;5036602;28;20033;-72
2021/07/23 06:02:10;;;;;;;5.93;2.85;;;23.20;60.20;;;;;;5036267;28;20042;-72
2021/07/23 06:04:36;;;;;;;5.40;3.20;;;23.30;60.00;;;;;;5036539;28;20033;-73
2021/07/23 06:07:06;;;;;;;3.50;2.80;;;23.30;60.00;;;;;;5036131;28;20372;-72
2021/07/23 06:09:32;;;;;;;3.47;2.60;;;23.40;59.80;;;;;;5036379;28;20057;-72
2021/07/23 06:11:59;;;;;;;3.90;2.40;;;23.50;59.20;;;;;;5036125;28;20018;-72
2021/07/23 06:14:25;;;;;;;5.28;2.60;;;23.60;58.30;;;;;;5036162;28;20037;-72
2021/07/23 06:16:51;;;;;;;4.63;2.28;;;23.70;57.60;;;;;;5036165;28;20025;-72
2021/07/23 06:19:16;;;;;;;7.30;2.67;;;23.80;57.00;;;;;;5036103;28;20026;-72
2021/07/23 06:21:42;;;;;;;6.97;2.70;;;23.80;56.80;;;;;;5035669;28;20043;-71
2021/07/23 06:24:08;;;;;;;7.78;2.13;;;23.90;56.80;;;;;;5035871;28;20036;-71
2021/07/23 06:26:37;;;;;;;7.68;2.55;;;23.90;56.30;;;;;;5036044;28;20025;-71
2021/07/23 06:29:03;;;;;;;4.22;2.40;;;24.00;56.10;;;;;;5035661;28;20025;-71
2021/07/23 06:31:29;;;;;;;4.28;2.70;;;24.00;56.30;;;;;;5034828;28;20061;-71
2021/07/23 06:33:55;;;;;;;4.13;2.42;;;24.00;56.30;;;;;;5035161;28;20085;-71
2021/07/23 06:36:21;;;;;;;4.45;2.38;;;24.10;56.30;;;;;;5036020;28;20056;-71
2021/07/23 06:38:47;;;;;;;5.03;2.58;;;24.20;56.20;;;;;;5035684;28;20549;-71
2021/07/23 06:41:12;;;;;;;4.57;2.60;;;24.30;56.20;;;;;;5035607;28;20033;-72
2021/07/23 06:43:38;;;;;;;3.60;2.40;;;24.40;55.90;;;;;;5035516;28;20480;-72
2021/07/23 06:46:04;;;;;;;6.93;2.55;;;24.40;55.90;;;;;;5035715;28;20025;-72
2021/07/23 06:48:30;;;;;;;7.10;2.88;;;24.50;55.90;;;;;;5035670;28;20033;-72
2021/07/23 06:50:56;;;;;;;4.93;2.60;;;24.50;55.90;;;;;;5035650;28;20376;-72
2021/07/23 06:53:22;;;;;;;4.18;2.90;;;24.60;55.90;;;;;;5035592;28;20475;-73
2021/07/23 06:55:48;;;;;;;5.25;2.60;;;24.70;56.50;;;;;;5035886;28;20025;-73
2021/07/23 06:58:14;;;;;;;4.38;2.58;;;24.70;55.70;;;;;;5035681;28;20034;-73
2021/07/23 07:00:39;;;;;;;5.68;2.50;;;24.80;55.10;;;;;;5032495;28;20034;-74
2021/07/23 07:03:09;;;;;;;11.52;3.45;;;24.90;54.70;;;;;;5034808;28;20128;-73
2021/07/23 07:05:35;;;;;;;6.53;2.55;;;24.90;53.60;;;;;;5035502;28;20048;-73
2021/07/23 07:08:01;;;;;;;7.20;2.80;;;24.90;53.60;;;;;;5034993;28;20025;-72
2021/07/23 07:10:28;;;;;;;5.00;2.47;;;24.90;53.60;;;;;;5034162;28;20101;-72
2021/07/23 07:12:57;;;;;;;8.13;3.25;;;24.90;53.20;;;;;;5034424;28;20383;-72
2021/07/23 07:15:23;;;;;;;4.65;2.60;;;25.00;53.10;;;;;;5033169;28;20478;-72
2021/07/23 07:17:57;;;;;;;4.07;2.50;;;25.00;53.20;;;;;;5035132;28;20096;-72
2021/07/23 07:20:23;;;;;;;7.60;2.67;;;25.10;53.10;;;;;;5035089;28;20049;-72
2021/07/23 07:22:50;;;;;;;5.72;2.95;;;25.20;53.00;;;;;;5034443;28;20079;-72
2021/07/23 07:25:16;;;;;;;4.60;2.65;;;25.20;52.80;;;;;;5035130;28;20341;-71
2021/07/23 07:27:41;;;;;;;6.55;2.45;;;25.20;52.60;;;;;;5034854;28;20109;-73
2021/07/23 07:30:07;;;;;;;4.70;2.30;;;25.30;52.60;;;;;;5034267;28;20124;-72
2021/07/23 07:32:33;;;;;;;5.72;2.40;;;25.40;52.50;;;;;;5034754;28;20460;-72
2021/07/23 07:34:58;;;;;;;6.05;2.58;;;25.40;52.50;;;;;;5024238;28;20033;-73
2021/07/23 07:37:24;;;;;;;5.38;2.50;;;25.40;52.60;;;;;;5033728;28;20022;-72
2021/07/23 07:39:50;;;;;;;5.85;2.85;;;25.50;52.70;;;;;;5031057;28;20045;-74
2021/07/23 07:42:16;;;;;;;4.68;2.72;;;25.60;52.70;;;;;;5034034;28;20084;-71
2021/07/23 07:44:42;;;;;;;4.40;2.67;;;25.70;52.40;;;;;;5033483;28;20041;-72
2021/07/23 07:47:08;;;;;;;4.93;2.60;;;25.70;51.80;;;;;;5030224;28;20048;-72
2021/07/23 07:49:34;;;;;;;8.23;2.85;;;25.80;51.90;;;;;;5032604;28;20467;-73
2021/07/23 07:51:59;;;;;;;7.00;2.65;;;25.90;51.50;;;;;;5033833;28;20026;-72
2021/07/23 07:54:25;;;;;;;2.50;2.30;;;26.00;51.00;;;;;;5033864;28;20445;-71
2021/07/23 07:56:52;;;;;;;3.40;2.50;;;26.00;50.50;;;;;;5034188;28;20394;-71
2021/07/23 07:59:18;;;;;;;3.60;2.22;;;26.10;50.10;;;;;;5033895;28;20037;-72
2021/07/23 08:01:43;;;;;;;10.38;3.20;;;26.10;49.90;;;;;;5033304;28;20044;-73
2021/07/23 08:04:09;;;;;;;6.30;2.60;;;26.20;49.60;;;;;;5033140;28;20136;-71
2021/07/23 08:06:38;;;;;;;5.25;2.80;;;26.20;49.20;;;;;;5033916;28;20030;-71
2021/07/23 08:09:05;;;;;;;8.07;2.67;;;26.30;49.30;;;;;;5034008;28;20036;-71
2021/07/23 08:11:35;;;;;;;4.20;2.00;;;26.50;49.10;;;;;;5033212;28;20044;-72
2021/07/23 08:14:01;;;;;;;4.32;2.08;;;26.60;48.40;;;;;;5033854;28;20059;-72
2021/07/23 08:16:29;;;;;;;7.03;2.65;;;26.80;48.40;;;;;;5033837;28;20028;-72
2021/07/23 08:18:54;;;;;;;6.35;2.30;;;26.90;48.00;;;;;;5033206;28;20087;-72
2021/07/23 08:21:20;;;;;;;3.03;1.75;;;27.00;47.70;;;;;;5033674;28;20456;-72
2021/07/23 08:23:46;;;;;;;3.53;2.30;;;27.10;47.20;;;;;;5033596;28;20033;-72
2021/07/23 08:26:12;;;;;;;2.80;1.65;;;27.20;47.00;;;;;;5032073;28;20044;-72
2021/07/23 08:28:37;;;;;;;5.22;2.20;;;27.40;47.00;;;;;;5033446;28;20030;-72
2021/07/23 08:31:04;;;;;;;5.78;1.88;;;27.50;47.20;;;;;;5032852;28;20108;-74
2021/07/23 08:33:29;;;;;;;5.30;2.03;;;27.70;46.00;;;;;;5021275;28;20041;-73
2021/07/23 08:35:56;;;;;;;4.72;2.00;;;27.80;45.40;;;;;;5031869;28;20049;-73
2021/07/23 08:38:22;;;;;;;3.60;1.80;;;28.00;44.90;;;;;;5031977;28;20037;-72
2021/07/23 08:40:48;;;;;;;2.20;1.80;;;28.10;44.40;;;;;;5031267;28;20467;-73
2021/07/23 08:43:14;;;;;;;3.63;2.10;;;28.30;44.40;;;;;;5033611;28;20040;-72
2021/07/23 08:45:41;;;;;;;2.13;1.77;;;28.40;44.30;;;;;;5030444;28;20052;-73
2021/07/23 08:48:07;;;;;;;3.55;1.92;;;28.70;44.00;;;;;;5013331;28;20025;-74
2021/07/23 08:50:33;;;;;;;5.28;1.95;;;28.90;43.40;;;;;;5013379;28;20021;-73
2021/07/23 08:52:59;;;;;;;4.53;2.00;;;29.00;43.00;;;;;;5032606;28;20040;-73
2021/07/23 08:55:26;;;;;;;5.30;2.05;;;29.20;42.50;;;;;;5031857;28;20022;-77
2021/07/23 08:57:52;;;;;;;4.22;2.00;;;29.40;42.30;;;;;;5031792;28;20029;-73
2021/07/23 09:00:20;;;;;;;2.42;1.67;;;29.50;41.70;;;;;;5033384;28;20052;-72
2021/07/23 09:02:59;;;;;;;3.58;1.77;;;29.60;41.30;;;;;;5028119;28;20037;-73
2021/07/23 09:05:35;;;;;;;3.72;1.60;;;29.70;41.00;;;;;;5033662;28;20494;-72
2021/07/23 09:08:20;;;;;;;4.07;2.00;;;29.90;41.00;;;;;;5030537;28;20021;-72
2021/07/23 09:10:48;;;;;;;6.72;2.25;;;30.10;41.40;;;;;;5032859;28;20022;-73
2021/07/23 09:13:24;;;;;;;4.15;1.88;;;30.30;41.00;;;;;;5029650;28;20068;-72
2021/07/23 09:15:50;;;;;;;6.63;1.88;;;30.60;40.40;;;;;;5033093;28;20052;-72
2021/07/23 09:18:28;;;;;;;3.60;1.65;;;30.80;40.20;;;;;;5029201;28;20104;-72
2021/07/23 09:20:57;;;;;;;2.58;1.75;;;30.90;40.00;;;;;;5031603;28;20115;-71
2021/07/23 09:23:32;;;;;;;3.17;1.80;;;31.20;39.70;;;;;;5029528;28;20124;-72
2021/07/23 09:26:14;;;;;;;4.40;2.10;;;31.30;39.50;;;;;;5032601;28;20079;-73
2021/07/23 09:28:45;;;;;;;3.40;2.08;;;31.50;39.40;;;;;;5031584;28;20030;-73
2021/07/23 09:31:20;;;;;;;2.65;1.92;;;31.70;39.10;;;;;;5032014;28;20044;-72
2021/07/23 09:33:46;;;;;;;2.15;1.65;;;32.00;39.20;;;;;;5032120;28;20164;-73
2021/07/23 09:36:13;;;;;;;4.13;1.73;;;32.30;39.00;;;;;;5030644;28;20484;-73
2021/07/23 09:38:44;;;;;;;5.13;2.22;;;32.50;38.90;;;;;;5037839;28;20079;-73
2021/07/23 09:41:22;;;;;;;6.43;2.20;;;32.90;38.50;;;;;;5034248;28;20037;-72
2021/07/23 09:44:00;;;;;;;2.85;2.00;;;33.10;38.30;;;;;;5039959;28;20515;-73
2021/07/23 09:46:27;;;;;;;4.72;1.63;;;33.30;38.10;;;;;;5035056;28;20482;-72
2021/07/23 09:48:54;;;;;;;5.30;2.40;;;33.50;37.90;;;;;;5041590;28;20170;-72
2021/07/23 09:51:22;;;;;;;3.88;2.20;;;33.70;37.60;;;;;;5027819;28;20025;-74
2021/07/23 09:53:49;;;;;;;4.45;1.90;;;34.00;37.40;;;;;;5040367;28;20372;-75
2021/07/23 09:56:16;;;;;;;6.55;2.42;;;34.20;37.30;;;;;;5028574;28;20017;-77
2021/07/23 09:58:52;;;;;;;6.30;2.53;;;34.40;37.00;;;;;;5038306;28;20021;-75
2021/07/23 10:01:30;;;;;;;6.30;1.67;;;34.60;36.90;;;;;;5038079;28;20073;-74
2021/07/23 10:03:59;;;;;;;4.03;1.80;;;34.80;36.50;;;;;;5032629;28;20049;-73
2021/07/23 10:06:36;;;;;;;5.25;2.58;;;35.10;36.50;;;;;;5038405;28;20036;-72
2021/07/23 10:09:10;;;;;;;2.85;1.65;;;35.20;35.90;;;;;;5039977;28;20407;-73
2021/07/23 10:11:39;;;;;;;1.92;1.65;;;35.30;36.00;;;;;;5038210;28;20025;-72
2021/07/23 10:14:09;;;;;;;2.38;1.40;;;35.40;35.90;;;;;;5038167;28;20033;-71
2021/07/23 10:16:37;;;;;;;4.15;1.73;;;35.60;35.90;;;;;;5035756;28;20025;-72
2021/07/23 10:19:07;;;;;;;2.60;2.40;;;35.80;35.90;;;;;;5035057;28;20037;-72
2021/07/23 10:21:33;;;;;;;2.95;1.55;;;36.00;35.80;;;;;;5046032;28;20021;-71
2021/07/23 10:24:00;;;;;;;2.67;1.50;;;36.10;35.70;;;;;;5044737;28;20082;-72
2021/07/23 10:29:48;;;;;;;2.45;2.00;;;36.60;35.50;;;;;;5042988;28;20024;-73
2021/07/23 10:32:23;;;;;;;3.45;1.80;;;36.80;35.10;;;;;;5045145;28;20504;-74
2021/07/23 10:34:50;;;;;;;1.80;1.63;;;36.90;34.60;;;;;;5039847;28;20037;-73
2021/07/23 10:37:32;;;;;;;6.35;1.80;;;37.10;34.90;;;;;;5055885;28;20394;-72
2021/07/23 10:40:09;;;;;;;4.28;1.70;;;37.30;34.50;;;;;;5047003;28;20065;-73
2021/07/23 10:42:36;;;;;;;4.93;2.38;;;37.30;34.20;;;;;;5038801;28;20033;-72
2021/07/23 10:45:07;;;;;;;2.30;1.70;;;37.10;34.30;;;;;;5030801;28;20037;-73
2021/07/23 10:47:36;;;;;;;3.47;1.88;;;37.10;34.50;;;;;;5035407;28;20104;-72
2021/07/23 10:50:03;;;;;;;2.95;1.50;;;37.20;34.80;;;;;;5033850;28;20386;-73
2021/07/23 10:52:34;;;;;;;3.38;1.75;;;37.30;34.50;;;;;;5040406;28;20030;-71
2021/07/23 10:55:12;;;;;;;2.05;1.65;;;37.40;34.30;;;;;;5015526;28;20034;-73
2021/07/23 10:57:38;;;;;;;3.38;1.92;;;37.50;34.30;;;;;;5014325;28;20117;-75
2021/07/23 11:00:05;;;;;;;3.50;1.52;;;37.60;34.00;;;;;;5043291;28;20051;-72
2021/07/23 11:02:31;;;;;;;4.72;1.83;;;37.70;34.10;;;;;;5055025;28;20029;-75
2021/07/23 11:05:07;;;;;;;3.20;1.63;;;37.80;34.00;;;;;;5040967;28;20048;-75
2021/07/23 11:07:33;;;;;;;9.27;2.50;;;38.00;33.90;;;;;;5035160;28;20040;-74
2021/07/23 11:09:59;;;;;;;5.65;1.92;;;38.20;33.60;;;;;;5032088;28;20037;-73
2021/07/23 11:12:28;;;;;;;2.33;1.45;;;38.40;33.50;;;;;;5032729;28;20109;-75
2021/07/23 11:15:01;;;;;;;3.15;1.55;;;38.60;33.40;;;;;;5034841;28;20486;-72
2021/07/23 11:17:31;;;;;;;2.08;1.50;;;38.70;33.50;;;;;;5031222;28;20144;-72
2021/07/23 11:19:59;;;;;;;2.63;1.70;;;39.00;33.30;;;;;;5034584;28;20123;-72
2021/07/23 11:22:27;;;;;;;3.42;1.27;;;39.10;33.00;;;;;;5031366;28;20065;-72
2021/07/23 11:25:10;;;;;;;4.32;1.70;;;39.10;32.80;;;;;;5023758;28;20446;-73
2021/07/23 11:27:41;;;;;;;;;;;39.10;32.50;;;;;;5020970;28;20135;-74
2021/07/23 11:30:16;;;;;;;3.83;1.70;;;39.00;33.00;;;;;;5033311;28;19905;-73
2021/07/23 11:32:49;;;;;;;5.05;1.75;;;39.20;32.90;;;;;;5032335;28;20037;-73
2021/07/23 11:35:15;;;;;;;3.35;1.60;;;39.40;33.00;;;;;;5034303;28;20448;-73
2021/07/23 11:37:41;;;;;;;1.67;1.58;;;39.50;32.70;;;;;;5032543;28;20021;-73
2021/07/23 11:40:09;;;;;;;3.90;1.50;;;39.70;32.50;;;;;;5033414;28;20045;-73
2021/07/23 11:42:37;;;;;;;4.43;1.80;;;39.80;32.50;;;;;;5030471;28;20041;-74
2021/07/23 11:45:06;;;;;;;2.17;1.95;;;40.10;32.60;;;;;;5034119;28;20030;-73
2021/07/23 11:47:34;;;;;;;2.35;1.52;;;40.40;32.40;;;;;;5032639;28;20080;-75
2021/07/23 11:50:02;;;;;;;3.67;1.90;;;40.50;32.00;;;;;;5031824;28;20460;-72
2021/07/23 11:52:28;;;;;;;2.15;1.73;;;40.60;31.80;;;;;;5034443;28;20025;-72
2021/07/23 11:55:05;;;;;;;3.25;1.70;;;40.60;31.80;;;;;;5034379;28;20036;-72
2021/07/23 11:57:39;;;;;;;3.13;1.60;;;40.70;31.70;;;;;;5034688;28;20036;-72
2021/07/23 12:00:24;;;;;;;5.10;1.42;;;40.90;31.70;;;;;;5034213;28;20065;-72
2021/07/23 12:02:54;;;;;;;3.20;1.67;;;41.20;31.40;;;;;;5034641;28;20041;-73
2021/07/23 12:05:21;;;;;;;1.70;1.60;;;41.50;31.50;;;;;;5033296;28;20034;-75
2021/07/23 12:08:16;;;;;;;3.10;1.83;;;41.60;31.30;;;;;;5034080;28;20025;-73
2021/07/23 12:10:42;;;;;;;1.83;1.42;;;41.90;31.10;;;;;;5021015;28;20132;-72
2021/07/23 12:13:13;;;;;;;3.72;1.70;;;42.00;31.80;;;;;;5033856;28;20069;-72
2021/07/23 12:15:52;;;;;;;5.65;2.20;;;42.20;31.00;;;;;;5034075;28;20126;-72
2021/07/23 12:18:20;;;;;;;3.33;1.83;;;42.30;30.80;;;;;;5032916;28;20057;-72
2021/07/23 12:20:46;;;;;;;2.42;1.50;;;42.40;31.00;;;;;;5034188;28;20022;-72
2021/07/23 12:23:30;;;;;;;3.08;1.88;;;42.40;30.80;;;;;;5032713;28;20531;-72
2021/07/23 12:25:56;;;;;;;2.63;1.80;;;42.70;30.80;;;;;;5033581;28;20486;-73
2021/07/23 12:28:23;;;;;;;2.55;1.58;;;42.90;30.60;;;;;;5034519;28;20030;-73
2021/07/23 12:30:49;;;;;;;4.07;1.35;;;43.10;30.40;;;;;;5033206;28;20133;-74
2021/07/23 12:33:19;;;;;;;3.58;1.63;;;43.40;30.00;;;;;;5033807;28;20372;-73
2021/07/23 12:35:46;;;;;;;4.13;1.58;;;43.60;30.00;;;;;;5034069;28;20029;-74
2021/07/23 12:38:13;;;;;;;2.53;1.60;;;43.70;30.00;;;;;;5033702;28;20498;-73
2021/07/23 12:40:57;;;;;;;3.20;1.60;;;44.00;29.90;;;;;;5034331;28;20029;-74
2021/07/23 12:43:23;;;;;;;5.20;1.80;;;44.10;29.60;;;;;;5033980;28;20029;-75
2021/07/23 12:45:51;;;;;;;1.73;1.55;;;44.00;29.60;;;;;;5033505;28;20079;-74
2021/07/23 12:48:18;;;;;;;3.03;1.95;;;44.00;29.70;;;;;;5033390;28;20030;-74
2021/07/23 12:50:58;;;;;;;1.45;1.27;;;44.00;29.80;;;;;;5034304;28;20406;-73
2021/07/23 12:53:25;;;;;;;2.08;1.70;;;44.10;29.50;;;;;;5032555;28;20037;-73